Terminal Aerodrome Forecast
Issued by NWS Jackson, MS

Home | Current Version | Previous Version | Text Only | Print | Product List | Glossary On
Versions: 1 2 3 4 5 6 7 8 9 10 11 12 13 14 15 16
946
FTUS44 KJAN 230842 AAA
TAFHBG
TAF AMD
KHBG 230842Z 2309/2406 00000KT 1/2SM FG VV001
     FM231330 00000KT 2SM BR OVC002
     FM231500 VRB03KT P6SM SCT030
     FM231700 23006KT P6SM VCTS SCT050CB
     FM240100 18003KT P6SM SCT250=

USA.gov is the U.S. government's official web portal to all federal, state and local government web resources and services.